createdAt,value
2019-02-10T00:02:45.147Z,97513.00
2019-02-10T00:07:52.389Z,97524.00
2019-02-10T00:13:26.927Z,97529.00
2019-02-10T00:18:34.738Z,97527.00
2019-02-10T00:23:41.274Z,97520.00
2019-02-10T00:28:49.185Z,97523.00
2019-02-10T00:33:55.825Z,97528.00
2019-02-10T00:39:04.179Z,97522.00
2019-02-10T00:44:11.508Z,97523.00
2019-02-10T00:49:18.141Z,97509.00
2019-02-10T00:54:23.808Z,97499.00
2019-02-10T00:59:29.440Z,97499.00
2019-02-10T01:04:35.706Z,97499.00
2019-02-10T01:09:42.839Z,97494.00
2019-02-10T01:14:48.877Z,97500.00
2019-02-10T01:19:57.155Z,97499.00
2019-02-10T01:25:04.598Z,97511.00
2019-02-10T01:30:14.847Z,97495.00
2019-02-10T01:35:22.419Z,97485.00
2019-02-10T01:40:28.051Z,97476.00
2019-02-10T01:45:34.671Z,97477.00
2019-02-10T01:50:41.379Z,97481.00
2019-02-10T01:55:47.667Z,97458.00
2019-02-10T02:00:56.024Z,97456.00
2019-02-10T02:06:02.913Z,97441.00
2019-02-10T02:11:09.616Z,97441.00
2019-02-10T02:16:16.126Z,97435.00
2019-02-10T02:21:22.717Z,97434.00
2019-02-10T02:26:28.390Z,97413.00
2019-02-10T02:31:34.917Z,97407.00
2019-02-10T02:36:42.486Z,97404.00
2019-02-10T02:41:48.760Z,97383.00
2019-02-10T02:46:54.983Z,97368.00
2019-02-10T02:52:01.032Z,97365.00
2019-02-10T02:57:09.011Z,97353.00
2019-02-10T03:02:15.913Z,97339.00
2019-02-10T03:07:22.823Z,97323.00
2019-02-10T03:12:30.219Z,97326.00
2019-02-10T03:17:37.125Z,97314.00
2019-02-10T03:22:44.067Z,97311.00
2019-02-10T03:27:50.835Z,97311.00
2019-02-10T03:32:57.244Z,97304.00
2019-02-10T03:38:03.732Z,97309.00
2019-02-10T03:43:10.105Z,97309.00
2019-02-10T03:48:16.528Z,97298.00
2019-02-10T03:53:42.813Z,97287.00
2019-02-10T03:58:49.487Z,97275.00
2019-02-10T04:03:57.989Z,97278.00
2019-02-10T04:09:05.347Z,97268.00
2019-02-10T04:14:11.898Z,97268.00
2019-02-10T04:19:18.347Z,97243.00
2019-02-10T04:24:24.183Z,97243.00
2019-02-10T04:29:33.000Z,97235.00
2019-02-10T04:34:39.808Z,97232.00
2019-02-10T04:39:46.776Z,97204.00
2019-02-10T04:44:53.721Z,97190.00
2019-02-10T04:50:01.787Z,97166.00
2019-02-10T04:55:09.237Z,97162.00
2019-02-10T05:00:36.555Z,97153.00
2019-02-10T05:05:43.252Z,97145.00
2019-02-10T05:10:50.310Z,97138.00
2019-02-10T05:15:57.272Z,97123.00
2019-02-10T05:21:05.630Z,97121.00
2019-02-10T05:26:12.285Z,97112.00
2019-02-10T05:31:19.482Z,97098.00
2019-02-10T05:36:25.380Z,97095.00
2019-02-10T05:41:32.368Z,97079.00
2019-02-10T05:46:39.155Z,97060.00
2019-02-10T05:51:45.965Z,97059.00
2019-02-10T05:56:52.473Z,97042.00
2019-02-10T06:02:05.855Z,97027.00
2019-02-10T06:07:18.009Z,97000.00
2019-02-10T06:12:23.804Z,96991.00
2019-02-10T06:17:30.651Z,96983.00
2019-02-10T06:22:38.574Z,96958.00
2019-02-10T06:27:45.008Z,96921.00
2019-02-10T06:32:51.696Z,96935.00
2019-02-10T06:38:10.357Z,96942.00
2019-02-10T06:43:18.330Z,96955.00
2019-02-10T06:48:24.173Z,96956.00
2019-02-10T06:53:30.991Z,96944.00
2019-02-10T06:58:37.764Z,96932.00
2019-02-10T07:03:50.208Z,96929.00
2019-02-10T07:08:56.706Z,96914.00
2019-02-10T07:14:03.347Z,96913.00
2019-02-10T07:20:00.763Z,96909.00
2019-02-10T07:25:20.725Z,96886.00
2019-02-10T07:30:49.001Z,96885.00
2019-02-10T07:36:05.835Z,96875.00
2019-02-10T07:41:37.346Z,96862.00
2019-02-10T07:47:10.356Z,96838.00
2019-02-10T07:52:44.327Z,96811.00
2019-02-10T07:58:13.549Z,96798.00
2019-02-10T08:03:33.211Z,96789.00
2019-02-10T08:09:13.269Z,96791.00
2019-02-10T08:14:33.395Z,96778.00
2019-02-10T08:20:00.607Z,96756.00
2019-02-10T08:25:47.006Z,96764.00
2019-02-10T08:31:13.345Z,96731.00
2019-02-10T08:36:56.599Z,96715.00
2019-02-10T08:42:21.782Z,96683.00
2019-02-10T08:47:49.611Z,96667.00
2019-02-10T08:53:06.655Z,96659.00
2019-02-10T08:58:13.358Z,96643.00
2019-02-10T09:03:21.544Z,96650.00
2019-02-10T09:08:27.437Z,96630.00
2019-02-10T09:13:34.375Z,96622.00
2019-02-10T09:18:40.809Z,96611.00
2019-02-10T09:23:47.180Z,96595.00
2019-02-10T09:28:53.568Z,96565.00
2019-02-10T09:34:00.077Z,96569.00
2019-02-10T09:39:10.908Z,96565.00
2019-02-10T09:44:16.615Z,96561.00
2019-02-10T09:49:24.121Z,96558.00
2019-02-10T09:54:32.420Z,96542.00
2019-02-10T09:59:39.286Z,96542.00
2019-02-10T10:04:46.076Z,96523.00
2019-02-10T10:09:52.907Z,96515.00
2019-02-10T10:15:00.021Z,96511.00
2019-02-10T10:20:16.332Z,96509.00
2019-02-10T10:25:22.646Z,96497.00
2019-02-10T10:30:28.767Z,96490.00
2019-02-10T10:35:35.586Z,96468.00
2019-02-10T10:40:42.280Z,96462.00
2019-02-10T10:45:49.205Z,96446.00
2019-02-10T10:50:56.182Z,96398.00
2019-02-10T10:56:03.365Z,96388.00
2019-02-10T11:01:09.943Z,96386.00
2019-02-10T11:06:16.775Z,96374.00
2019-02-10T11:11:22.822Z,96369.00
2019-02-10T11:16:28.839Z,96354.00
2019-02-10T11:21:35.734Z,96347.00
2019-02-10T11:26:43.867Z,96317.00
2019-02-10T11:31:50.319Z,96307.00
2019-02-10T11:36:57.301Z,96299.00
2019-02-10T11:42:03.909Z,96280.00
2019-02-10T11:47:10.487Z,96247.00
2019-02-10T11:52:17.601Z,96240.00
2019-02-10T11:57:23.541Z,96215.00
2019-02-10T12:02:37.656Z,96182.00
2019-02-10T12:07:38.424Z,96177.00
2019-02-10T12:12:45.593Z,96160.00
2019-02-10T12:17:52.309Z,96166.00
2019-02-10T12:22:59.146Z,96157.00
2019-02-10T12:28:06.049Z,96146.00
2019-02-10T12:33:13.103Z,96119.00
2019-02-10T12:38:20.139Z,96122.00
2019-02-10T12:43:26.165Z,96114.00
2019-02-10T12:48:33.084Z,96100.00
2019-02-10T12:53:39.968Z,96105.00
2019-02-10T12:58:47.543Z,96078.00
2019-02-10T13:03:54.651Z,96063.00
2019-02-10T13:09:01.552Z,96065.00
2019-02-10T13:14:10.032Z,96052.00
2019-02-10T13:19:17.404Z,96040.00
2019-02-10T13:24:23.481Z,96007.00
2019-02-10T13:29:31.184Z,95991.00
2019-02-10T13:34:37.874Z,95997.00
2019-02-10T13:39:44.961Z,95993.00
2019-02-10T13:44:51.557Z,95987.00
2019-02-10T13:49:58.426Z,95966.00
2019-02-10T13:55:07.416Z,95956.00
2019-02-10T14:00:22.569Z,95943.00
2019-02-10T14:05:28.467Z,95936.00
2019-02-10T14:10:35.663Z,95926.00
2019-02-10T14:15:42.420Z,95928.00
2019-02-10T14:20:49.298Z,95912.00
2019-02-10T14:25:56.001Z,95916.00
2019-02-10T14:31:02.713Z,95917.00
2019-02-10T14:36:09.737Z,95920.00
2019-02-10T14:41:16.344Z,95904.00
2019-02-10T14:46:23.122Z,95893.00
2019-02-10T14:51:29.117Z,95885.00
2019-02-10T14:56:35.071Z,95874.00
2019-02-10T15:01:42.965Z,95879.00
2019-02-10T15:06:50.695Z,95878.00
2019-02-10T15:11:57.301Z,95875.00
2019-02-10T15:17:03.930Z,95858.00
2019-02-10T15:22:13.392Z,95856.00
2019-02-10T15:27:20.258Z,95854.00
2019-02-10T15:32:26.227Z,95832.00
2019-02-10T15:37:33.119Z,95841.00
2019-02-10T15:42:39.961Z,95835.00
2019-02-10T15:47:46.380Z,95836.00
2019-02-10T15:52:52.970Z,95835.00
2019-02-10T15:57:59.347Z,95836.00
2019-02-10T16:03:05.866Z,95850.00
2019-02-10T16:08:12.548Z,95823.00
2019-02-10T16:13:19.005Z,95836.00
2019-02-10T16:18:24.757Z,95812.00
2019-02-10T16:23:31.367Z,95809.00
2019-02-10T16:28:38.051Z,95802.00
2019-02-10T16:33:44.356Z,95799.00
2019-02-10T16:38:51.001Z,95780.00
2019-02-10T16:43:57.759Z,95777.00
2019-02-10T16:49:04.421Z,95776.00
2019-02-10T16:54:11.321Z,95772.00
2019-02-10T16:59:18.183Z,95770.00
2019-02-10T17:04:24.042Z,95780.00
2019-02-10T17:09:29.742Z,95795.00
2019-02-10T17:14:37.564Z,95783.00
2019-02-10T17:19:44.206Z,95767.00
2019-02-10T17:24:50.843Z,95786.00
2019-02-10T17:29:57.135Z,95774.00
2019-02-10T17:35:04.350Z,95788.00
2019-02-10T17:40:23.769Z,95793.00
2019-02-10T17:45:31.067Z,95774.00
2019-02-10T17:50:37.449Z,95787.00
2019-02-10T17:55:45.291Z,95793.00
2019-02-10T18:00:52.148Z,95790.00
2019-02-10T18:06:00.017Z,95801.00
2019-02-10T18:11:08.777Z,95800.00
2019-02-10T18:16:29.273Z,95809.00
2019-02-10T18:21:45.859Z,95783.00
2019-02-10T18:26:56.955Z,95779.00
2019-02-10T18:32:04.876Z,95785.00
2019-02-10T18:37:21.151Z,95819.00
2019-02-10T18:42:43.730Z,95810.00
2019-02-10T18:47:57.764Z,95813.00
2019-02-10T18:53:05.784Z,95821.00
2019-02-10T18:58:13.684Z,95832.00
2019-02-10T19:03:30.626Z,95840.00
2019-02-10T19:08:38.705Z,95852.00
2019-02-10T19:13:46.596Z,95849.00
2019-02-10T19:18:54.848Z,95872.00
2019-02-10T19:24:03.134Z,95854.00
2019-02-10T19:29:11.133Z,95845.00
2019-02-10T19:34:22.535Z,95859.00
2019-02-10T19:39:32.909Z,95859.00
2019-02-10T19:44:53.233Z,95839.00
2019-02-10T19:50:04.542Z,95858.00
2019-02-10T19:55:16.296Z,95874.00
2019-02-10T20:00:28.501Z,95873.00
2019-02-10T20:05:40.024Z,95875.00
2019-02-10T20:10:47.959Z,95880.00
2019-02-10T20:15:57.500Z,95914.00
2019-02-10T20:21:08.395Z,95942.00
2019-02-10T20:26:18.014Z,95932.00
2019-02-10T20:31:28.246Z,95918.00
2019-02-10T20:36:35.602Z,95923.00
2019-02-10T20:41:46.757Z,95916.00
2019-02-10T20:47:01.211Z,95914.00
2019-02-10T20:52:09.584Z,95926.00
2019-02-10T20:57:23.686Z,95944.00
2019-02-10T21:02:41.252Z,95946.00
2019-02-10T21:07:49.203Z,95958.00
2019-02-10T21:12:57.162Z,95990.00
2019-02-10T21:18:20.564Z,96002.00
2019-02-10T21:23:27.832Z,95997.00
2019-02-10T21:28:37.199Z,95998.00
2019-02-10T21:33:57.435Z,95982.00
2019-02-10T21:39:21.374Z,95991.00
2019-02-10T21:44:28.720Z,95999.00
2019-02-10T21:49:35.491Z,95998.00
2019-02-10T21:54:42.090Z,96036.00
2019-02-10T21:59:50.137Z,96010.00
2019-02-10T22:04:56.357Z,96007.00
2019-02-10T22:10:21.451Z,96035.00
2019-02-10T22:15:27.251Z,96036.00
2019-02-10T22:20:32.972Z,96054.00
2019-02-10T22:25:40.456Z,96033.00
2019-02-10T22:30:46.856Z,96010.00
2019-02-10T22:35:53.249Z,96039.00
2019-02-10T22:40:59.391Z,96046.00
2019-02-10T22:46:05.977Z,96040.00
2019-02-10T22:51:12.279Z,96035.00
2019-02-10T22:56:19.979Z,96031.00
2019-02-10T23:01:25.682Z,96015.00
2019-02-10T23:06:32.324Z,96031.00
2019-02-10T23:11:38.909Z,96031.00
2019-02-10T23:16:45.603Z,96042.00
2019-02-10T23:21:52.187Z,96050.00
2019-02-10T23:26:58.767Z,96035.00
2019-02-10T23:32:05.371Z,96052.00
2019-02-10T23:37:12.110Z,96057.00
2019-02-10T23:42:18.314Z,96054.00
2019-02-10T23:47:24.002Z,96063.00
2019-02-10T23:52:29.765Z,96067.00
2019-02-10T23:57:36.866Z,96072.00
